Toronto, Canada
Current Conditions -  °F | °C
As of 1:00 AM on Tuesday 21 Oct 2014 (Local Time) from CYYZ Reporting Station
Overcast Overcast  
Wind Chill: 10°   Ceiling: 6500
Heat Index: 10°   Visibility: 10mi
Dew Point:   Wind: 5mph
Humidity: 94%   Direction: 290°WNW
Pressure: 29.78"   Gusts: NA
Location:  43.65°N, 79.39°W
Report Text: CYYZ 210500Z 29004KT 10SM FEW021 BKN065 OVC097 10/09 A2978 RMK SC2SC3AC3 SLP088
Loading
Personal Weather Stations






























Interactive Weather Map
Tropical Storm Tracking
New forecast layout! Learn more

10-Day Weather Forecast

Advertisements
Track Severe Weather on mobile